sensor_id;sensor_type;location;lat;lon;timestamp;P1;durP1;ratioP1;P2;durP2;ratioP2
25169;SDS011;13129;48.012;10.352;2023-05-18T03:30:12;9.65;;;8.60;;
25169;SDS011;13129;48.012;10.352;2023-05-18T03:32:38;13.50;;;7.57;;
25169;SDS011;13129;48.012;10.352;2023-05-18T03:35:05;15.10;;;8.48;;
25169;SDS011;13129;48.012;10.352;2023-05-18T03:37:31;11.13;;;8.07;;
25169;SDS011;13129;48.012;10.352;2023-05-18T03:40:07;10.25;;;7.68;;
25169;SDS011;13129;48.012;10.352;2023-05-18T03:45:04;9.77;;;7.72;;
25169;SDS011;13129;48.012;10.352;2023-05-18T03:47:30;10.48;;;8.75;;
25169;SDS011;13129;48.012;10.352;2023-05-18T03:49:56;11.05;;;8.27;;
25169;SDS011;13129;48.012;10.352;2023-05-18T03:52:21;9.63;;;8.52;;
25169;SDS011;13129;48.012;10.352;2023-05-18T03:54:48;10.45;;;8.45;;
25169;SDS011;13129;48.012;10.352;2023-05-18T03:57:14;11.27;;;8.70;;
25169;SDS011;13129;48.012;10.352;2023-05-18T03:59:41;14.55;;;8.63;;
25169;SDS011;13129;48.012;10.352;2023-05-18T04:02:07;17.25;;;8.48;;
25169;SDS011;13129;48.012;10.352;2023-05-18T04:04:33;12.82;;;8.88;;
25169;SDS011;13129;48.012;10.352;2023-05-18T04:07:00;9.88;;;8.20;;
25169;SDS011;13129;48.012;10.352;2023-05-18T04:09:26;11.35;;;7.82;;
25169;SDS011;13129;48.012;10.352;2023-05-18T04:11:53;13.52;;;8.65;;
25169;SDS011;13129;48.012;10.352;2023-05-18T04:14:19;13.80;;;9.15;;
25169;SDS011;13129;48.012;10.352;2023-05-18T04:16:45;10.63;;;8.48;;
25169;SDS011;13129;48.012;10.352;2023-05-18T04:19:11;14.63;;;8.45;;
25169;SDS011;13129;48.012;10.352;2023-05-18T04:21:37;15.20;;;9.15;;
25169;SDS011;13129;48.012;10.352;2023-05-18T04:24:07;12.47;;;8.50;;
25169;SDS011;13129;48.012;10.352;2023-05-18T04:26:33;13.30;;;8.77;;
25169;SDS011;13129;48.012;10.352;2023-05-18T04:29:02;14.10;;;9.10;;
25169;SDS011;13129;48.012;10.352;2023-05-18T04:31:28;11.45;;;8.55;;
25169;SDS011;13129;48.012;10.352;2023-05-18T04:33:54;12.65;;;8.55;;
25169;SDS011;13129;48.012;10.352;2023-05-18T04:36:21;13.98;;;9.32;;
25169;SDS011;13129;48.012;10.352;2023-05-18T04:38:50;10.48;;;8.65;;
25169;SDS011;13129;48.012;10.352;2023-05-18T04:41:16;12.55;;;8.52;;
25169;SDS011;13129;48.012;10.352;2023-05-18T04:43:44;10.82;;;8.35;;
25169;SDS011;13129;48.012;10.352;2023-05-18T04:46:11;15.95;;;9.50;;
25169;SDS011;13129;48.012;10.352;2023-05-18T04:48:38;12.73;;;9.23;;
25169;SDS011;13129;48.012;10.352;2023-05-18T04:51:03;12.38;;;8.52;;
25169;SDS011;13129;48.012;10.352;2023-05-18T04:53:30;12.45;;;8.98;;
25169;SDS011;13129;48.012;10.352;2023-05-18T04:55:57;12.88;;;9.68;;
25169;SDS011;13129;48.012;10.352;2023-05-18T04:58:25;12.05;;;9.48;;
25169;SDS011;13129;48.012;10.352;2023-05-18T05:00:51;14.20;;;9.57;;
25169;SDS011;13129;48.012;10.352;2023-05-18T05:03:17;13.45;;;9.40;;
25169;SDS011;13129;48.012;10.352;2023-05-18T05:05:43;12.95;;;9.15;;
25169;SDS011;13129;48.012;10.352;2023-05-18T05:08:09;11.68;;;9.48;;
25169;SDS011;13129;48.012;10.352;2023-05-18T05:10:35;11.43;;;8.68;;
25169;SDS011;13129;48.012;10.352;2023-05-18T05:13:01;13.50;;;9.00;;
25169;SDS011;13129;48.012;10.352;2023-05-18T05:15:27;11.60;;;9.55;;
25169;SDS011;13129;48.012;10.352;2023-05-18T05:17:53;12.10;;;8.55;;
25169;SDS011;13129;48.012;10.352;2023-05-18T05:20:19;10.20;;;8.07;;
25169;SDS011;13129;48.012;10.352;2023-05-18T05:22:44;12.68;;;8.60;;
25169;SDS011;13129;48.012;10.352;2023-05-18T05:25:10;9.57;;;7.57;;
25169;SDS011;13129;48.012;10.352;2023-05-18T05:27:36;10.15;;;7.47;;
25169;SDS011;13129;48.012;10.352;2023-05-18T05:30:02;7.72;;;6.57;;
25169;SDS011;13129;48.012;10.352;2023-05-18T05:32:28;9.95;;;6.88;;
25169;SDS011;13129;48.012;10.352;2023-05-18T05:34:54;8.18;;;6.43;;
25169;SDS011;13129;48.012;10.352;2023-05-18T05:37:20;8.10;;;6.32;;
25169;SDS011;13129;48.012;10.352;2023-05-18T05:39:45;7.53;;;6.57;;
25169;SDS011;13129;48.012;10.352;2023-05-18T05:42:11;8.55;;;6.63;;
25169;SDS011;13129;48.012;10.352;2023-05-18T05:44:37;7.30;;;6.07;;
25169;SDS011;13129;48.012;10.352;2023-05-18T05:47:04;9.43;;;6.68;;
25169;SDS011;13129;48.012;10.352;2023-05-18T05:49:30;10.35;;;6.75;;
25169;SDS011;13129;48.012;10.352;2023-05-18T05:51:56;7.18;;;6.10;;
25169;SDS011;13129;48.012;10.352;2023-05-18T05:54:22;7.40;;;6.60;;
25169;SDS011;13129;48.012;10.352;2023-05-18T05:56:47;7.53;;;6.75;;
25169;SDS011;13129;48.012;10.352;2023-05-18T05:59:13;7.28;;;6.03;;
25169;SDS011;13129;48.012;10.352;2023-05-18T06:01:39;8.55;;;7.25;;
25169;SDS011;13129;48.012;10.352;2023-05-18T06:04:05;8.07;;;6.97;;
25169;SDS011;13129;48.012;10.352;2023-05-18T06:06:35;6.88;;;5.78;;
25169;SDS011;13129;48.012;10.352;2023-05-18T06:09:02;6.75;;;5.72;;
25169;SDS011;13129;48.012;10.352;2023-05-18T06:11:28;7.45;;;6.20;;
25169;SDS011;13129;48.012;10.352;2023-05-18T06:13:55;8.10;;;6.97;;
25169;SDS011;13129;48.012;10.352;2023-05-18T06:16:21;7.55;;;6.28;;
25169;SDS011;13129;48.012;10.352;2023-05-18T06:18:46;7.72;;;6.22;;
25169;SDS011;13129;48.012;10.352;2023-05-18T06:21:13;9.07;;;5.88;;
25169;SDS011;13129;48.012;10.352;2023-05-18T06:23:39;8.02;;;5.78;;
25169;SDS011;13129;48.012;10.352;2023-05-18T06:26:05;8.15;;;5.75;;
25169;SDS011;13129;48.012;10.352;2023-05-18T06:28:30;7.95;;;6.25;;
25169;SDS011;13129;48.012;10.352;2023-05-18T06:30:57;9.95;;;6.00;;
25169;SDS011;13129;48.012;10.352;2023-05-18T06:33:22;6.82;;;5.40;;
25169;SDS011;13129;48.012;10.352;2023-05-18T06:35:48;6.43;;;5.63;;
25169;SDS011;13129;48.012;10.352;2023-05-18T06:38:14;7.38;;;5.68;;
25169;SDS011;13129;48.012;10.352;2023-05-18T06:40:39;8.63;;;5.30;;
25169;SDS011;13129;48.012;10.352;2023-05-18T06:43:05;7.88;;;5.68;;
25169;SDS011;13129;48.012;10.352;2023-05-18T06:45:31;6.50;;;5.30;;
25169;SDS011;13129;48.012;10.352;2023-05-18T06:47:56;6.32;;;5.22;;
25169;SDS011;13129;48.012;10.352;2023-05-18T06:50:22;9.45;;;5.97;;
25169;SDS011;13129;48.012;10.352;2023-05-18T06:52:48;7.03;;;5.68;;
25169;SDS011;13129;48.012;10.352;2023-05-18T06:55:14;7.63;;;5.80;;
25169;SDS011;13129;48.012;10.352;2023-05-18T06:57:40;5.55;;;4.75;;
25169;SDS011;13129;48.012;10.352;2023-05-18T07:00:05;7.22;;;5.25;;
25169;SDS011;13129;48.012;10.352;2023-05-18T07:05:02;5.93;;;5.07;;
25169;SDS011;13129;48.012;10.352;2023-05-18T07:07:30;5.97;;;4.55;;
25169;SDS011;13129;48.012;10.352;2023-05-18T07:09:56;7.50;;;4.97;;
25169;SDS011;13129;48.012;10.352;2023-05-18T07:12:23;6.78;;;4.88;;
25169;SDS011;13129;48.012;10.352;2023-05-18T07:14:50;6.88;;;5.07;;
25169;SDS011;13129;48.012;10.352;2023-05-18T07:17:16;7.10;;;4.30;;
25169;SDS011;13129;48.012;10.352;2023-05-18T07:19:41;8.23;;;4.85;;
25169;SDS011;13129;48.012;10.352;2023-05-18T07:22:07;8.05;;;4.47;;
25169;SDS011;13129;48.012;10.352;2023-05-18T07:24:33;7.00;;;4.75;;
25169;SDS011;13129;48.012;10.352;2023-05-18T07:26:58;5.75;;;4.88;;
25169;SDS011;13129;48.012;10.352;2023-05-18T07:29:24;9.30;;;4.22;;
25169;SDS011;13129;48.012;10.352;2023-05-18T07:31:50;6.80;;;4.25;;
25169;SDS011;13129;48.012;10.352;2023-05-18T07:34:15;6.65;;;4.13;;
25169;SDS011;13129;48.012;10.352;2023-05-18T07:36:41;7.32;;;4.20;;
25169;SDS011;13129;48.012;10.352;2023-05-18T07:39:07;5.97;;;4.53;;
25169;SDS011;13129;48.012;10.352;2023-05-18T07:41:33;6.63;;;4.13;;
25169;SDS011;13129;48.012;10.352;2023-05-18T07:43:58;5.57;;;4.00;;
25169;SDS011;13129;48.012;10.352;2023-05-18T07:46:24;5.90;;;4.25;;
25169;SDS011;13129;48.012;10.352;2023-05-18T07:48:50;5.68;;;4.25;;
25169;SDS011;13129;48.012;10.352;2023-05-18T07:51:15;6.30;;;4.25;;
25169;SDS011;13129;48.012;10.352;2023-05-18T07:53:41;7.30;;;3.90;;
25169;SDS011;13129;48.012;10.352;2023-05-18T07:56:07;7.15;;;4.32;;
25169;SDS011;13129;48.012;10.352;2023-05-18T07:58:35;5.72;;;3.53;;
25169;SDS011;13129;48.012;10.352;2023-05-18T08:01:01;8.50;;;4.07;;
25169;SDS011;13129;48.012;10.352;2023-05-18T08:03:27;6.95;;;3.75;;
25169;SDS011;13129;48.012;10.352;2023-05-18T08:05:53;6.40;;;3.97;;
25169;SDS011;13129;48.012;10.352;2023-05-18T08:08:19;7.05;;;3.45;;
25169;SDS011;13129;48.012;10.352;2023-05-18T08:10:44;4.60;;;3.38;;
25169;SDS011;13129;48.012;10.352;2023-05-18T08:13:10;6.15;;;3.60;;
25169;SDS011;13129;48.012;10.352;2023-05-18T08:15:38;6.57;;;4.00;;
25169;SDS011;13129;48.012;10.352;2023-05-18T08:18:04;6.13;;;4.03;;
25169;SDS011;13129;48.012;10.352;2023-05-18T08:20:30;4.35;;;3.95;;
25169;SDS011;13129;48.012;10.352;2023-05-18T08:22:56;6.50;;;4.53;;
25169;SDS011;13129;48.012;10.352;2023-05-18T08:25:22;5.60;;;4.32;;
25169;SDS011;13129;48.012;10.352;2023-05-18T08:27:49;5.88;;;3.67;;
25169;SDS011;13129;48.012;10.352;2023-05-18T08:30:14;6.47;;;4.32;;
25169;SDS011;13129;48.012;10.352;2023-05-18T08:32:40;4.88;;;4.20;;
25169;SDS011;13129;48.012;10.352;2023-05-18T08:35:06;6.03;;;4.13;;
25169;SDS011;13129;48.012;10.352;2023-05-18T08:37:33;4.72;;;3.60;;
25169;SDS011;13129;48.012;10.352;2023-05-18T08:40:01;6.78;;;4.07;;
25169;SDS011;13129;48.012;10.352;2023-05-18T08:45:25;5.05;;;4.18;;
25169;SDS011;13129;48.012;10.352;2023-05-18T08:47:59;5.45;;;4.00;;
25169;SDS011;13129;48.012;10.352;2023-05-18T08:50:25;5.25;;;3.42;;
25169;SDS011;13129;48.012;10.352;2023-05-18T08:52:54;7.03;;;4.03;;
25169;SDS011;13129;48.012;10.352;2023-05-18T08:55:24;6.18;;;3.75;;
25169;SDS011;13129;48.012;10.352;2023-05-18T08:57:53;7.50;;;3.95;;
25169;SDS011;13129;48.012;10.352;2023-05-18T09:00:21;6.93;;;3.88;;
25169;SDS011;13129;48.012;10.352;2023-05-18T09:02:48;6.85;;;4.35;;
25169;SDS011;13129;48.012;10.352;2023-05-18T09:05:14;5.70;;;4.53;;
25169;SDS011;13129;48.012;10.352;2023-05-18T09:07:41;6.97;;;3.92;;
25169;SDS011;13129;48.012;10.352;2023-05-18T09:10:11;6.82;;;4.15;;
25169;SDS011;13129;48.012;10.352;2023-05-18T09:12:37;7.93;;;3.83;;
25169;SDS011;13129;48.012;10.352;2023-05-18T09:15:05;4.82;;;3.75;;
25169;SDS011;13129;48.012;10.352;2023-05-18T09:17:33;4.43;;;3.17;;
25169;SDS011;13129;48.012;10.352;2023-05-18T09:19:59;5.38;;;3.92;;
25169;SDS011;13129;48.012;10.352;2023-05-18T09:22:25;6.45;;;3.65;;
25169;SDS011;13129;48.012;10.352;2023-05-18T09:24:51;4.63;;;3.78;;
25169;SDS011;13129;48.012;10.352;2023-05-18T09:27:17;5.20;;;3.58;;
25169;SDS011;13129;48.012;10.352;2023-05-18T09:29:53;5.47;;;3.63;;
25169;SDS011;13129;48.012;10.352;2023-05-18T09:32:20;6.22;;;3.72;;
25169;SDS011;13129;48.012;10.352;2023-05-18T09:34:46;6.75;;;3.38;;
25169;SDS011;13129;48.012;10.352;2023-05-18T09:37:16;5.95;;;3.85;;
25169;SDS011;13129;48.012;10.352;2023-05-18T09:39:43;5.90;;;4.13;;
25169;SDS011;13129;48.012;10.352;2023-05-18T09:42:09;6.85;;;3.67;;
25169;SDS011;13129;48.012;10.352;2023-05-18T09:44:36;6.18;;;3.95;;
25169;SDS011;13129;48.012;10.352;2023-05-18T09:47:05;5.18;;;3.35;;
25169;SDS011;13129;48.012;10.352;2023-05-18T09:49:33;6.47;;;3.90;;
25169;SDS011;13129;48.012;10.352;2023-05-18T09:51:59;7.45;;;4.65;;
25169;SDS011;13129;48.012;10.352;2023-05-18T09:54:25;6.18;;;4.30;;
25169;SDS011;13129;48.012;10.352;2023-05-18T09:56:51;8.80;;;3.78;;
25169;SDS011;13129;48.012;10.352;2023-05-18T09:59:17;5.35;;;4.20;;
25169;SDS011;13129;48.012;10.352;2023-05-18T10:01:55;6.45;;;3.90;;
25169;SDS011;13129;48.012;10.352;2023-05-18T10:04:22;4.38;;;3.72;;
25169;SDS011;13129;48.012;10.352;2023-05-18T10:06:48;5.40;;;3.72;;
25169;SDS011;13129;48.012;10.352;2023-05-18T10:09:14;5.75;;;3.67;;
25169;SDS011;13129;48.012;10.352;2023-05-18T10:11:40;5.03;;;3.67;;
25169;SDS011;13129;48.012;10.352;2023-05-18T10:14:09;6.75;;;3.47;;
25169;SDS011;13129;48.012;10.352;2023-05-18T10:16:35;4.25;;;3.63;;
25169;SDS011;13129;48.012;10.352;2023-05-18T10:19:01;5.50;;;3.65;;
25169;SDS011;13129;48.012;10.352;2023-05-18T10:21:30;5.70;;;3.63;;
25169;SDS011;13129;48.012;10.352;2023-05-18T10:23:58;4.68;;;4.15;;
25169;SDS011;13129;48.012;10.352;2023-05-18T10:26:27;13.48;;;5.65;;
25169;SDS011;13129;48.012;10.352;2023-05-18T10:28:54;8.88;;;4.57;;
25169;SDS011;13129;48.012;10.352;2023-05-18T10:31:22;7.65;;;4.75;;
25169;SDS011;13129;48.012;10.352;2023-05-18T10:37:22;5.53;;;4.43;;
25169;SDS011;13129;48.012;10.352;2023-05-18T10:40:49;9.07;;;4.47;;
25169;SDS011;13129;48.012;10.352;2023-05-18T10:43:19;7.43;;;4.40;;
25169;SDS011;13129;48.012;10.352;2023-05-18T10:45:50;5.90;;;4.60;;
25169;SDS011;13129;48.012;10.352;2023-05-18T10:48:26;6.28;;;4.55;;
25169;SDS011;13129;48.012;10.352;2023-05-18T10:50:54;8.10;;;5.20;;
25169;SDS011;13129;48.012;10.352;2023-05-18T10:53:22;7.45;;;4.57;;
25169;SDS011;13129;48.012;10.352;2023-05-18T10:55:50;6.70;;;4.38;;
25169;SDS011;13129;48.012;10.352;2023-05-18T10:58:18;6.45;;;4.63;;
25169;SDS011;13129;48.012;10.352;2023-05-18T11:00:47;6.75;;;4.85;;
25169;SDS011;13129;48.012;10.352;2023-05-18T11:03:15;5.68;;;4.45;;
25169;SDS011;13129;48.012;10.352;2023-05-18T11:05:43;7.03;;;4.88;;
25169;SDS011;13129;48.012;10.352;2023-05-18T11:08:17;6.40;;;4.70;;
25169;SDS011;13129;48.012;10.352;2023-05-18T11:10:51;6.10;;;4.18;;
25169;SDS011;13129;48.012;10.352;2023-05-18T11:13:29;8.40;;;4.40;;
25169;SDS011;13129;48.012;10.352;2023-05-18T11:21:01;6.18;;;4.07;;
25169;SDS011;13129;48.012;10.352;2023-05-18T11:23:33;7.00;;;4.28;;
25169;SDS011;13129;48.012;10.352;2023-05-18T11:26:02;8.02;;;4.32;;
25169;SDS011;13129;48.012;10.352;2023-05-18T11:28:28;7.25;;;4.40;;
25169;SDS011;13129;48.012;10.352;2023-05-18T11:30:54;6.65;;;4.45;;
25169;SDS011;13129;48.012;10.352;2023-05-18T11:33:24;7.18;;;4.93;;
25169;SDS011;13129;48.012;10.352;2023-05-18T11:35:56;6.30;;;4.20;;
25169;SDS011;13129;48.012;10.352;2023-05-18T11:41:36;6.68;;;4.80;;
25169;SDS011;13129;48.012;10.352;2023-05-18T11:44:13;6.93;;;4.65;;
25169;SDS011;13129;48.012;10.352;2023-05-18T11:49:36;8.18;;;4.13;;
25169;SDS011;13129;48.012;10.352;2023-05-18T11:52:14;6.55;;;5.00;;
25169;SDS011;13129;48.012;10.352;2023-05-18T11:57:17;6.15;;;4.30;;
25169;SDS011;13129;48.012;10.352;2023-05-18T11:59:57;9.43;;;4.93;;
25169;SDS011;13129;48.012;10.352;2023-05-18T12:02:24;5.60;;;4.10;;
25169;SDS011;13129;48.012;10.352;2023-05-18T12:04:51;5.43;;;4.00;;
25169;SDS011;13129;48.012;10.352;2023-05-18T12:07:21;5.68;;;4.60;;
25169;SDS011;13129;48.012;10.352;2023-05-18T12:09:49;5.72;;;3.88;;
25169;SDS011;13129;48.012;10.352;2023-05-18T12:12:15;6.13;;;4.60;;
25169;SDS011;13129;48.012;10.352;2023-05-18T12:14:45;6.20;;;4.32;;
25169;SDS011;13129;48.012;10.352;2023-05-18T12:17:22;6.43;;;4.00;;
25169;SDS011;13129;48.012;10.352;2023-05-18T12:19:48;8.38;;;4.38;;
25169;SDS011;13129;48.012;10.352;2023-05-18T12:22:14;5.55;;;4.13;;
25169;SDS011;13129;48.012;10.352;2023-05-18T12:24:41;6.22;;;4.38;;
25169;SDS011;13129;48.012;10.352;2023-05-18T12:27:11;6.50;;;3.85;;
25169;SDS011;13129;48.012;10.352;2023-05-18T12:29:37;8.27;;;4.63;;
25169;SDS011;13129;48.012;10.352;2023-05-18T12:32:05;5.68;;;4.03;;
25169;SDS011;13129;48.012;10.352;2023-05-18T12:34:32;4.95;;;3.92;;
25169;SDS011;13129;48.012;10.352;2023-05-18T12:36:58;6.20;;;4.03;;
25169;SDS011;13129;48.012;10.352;2023-05-18T12:39:24;6.75;;;4.13;;
25169;SDS011;13129;48.012;10.352;2023-05-18T12:41:49;6.72;;;3.47;;
25169;SDS011;13129;48.012;10.352;2023-05-18T12:44:15;6.80;;;3.83;;
25169;SDS011;13129;48.012;10.352;2023-05-18T12:46:41;7.65;;;4.57;;
25169;SDS011;13129;48.012;10.352;2023-05-18T12:49:07;6.22;;;4.10;;
25169;SDS011;13129;48.012;10.352;2023-05-18T12:51:34;7.60;;;5.22;;
25169;SDS011;13129;48.012;10.352;2023-05-18T12:54:01;6.35;;;5.50;;
25169;SDS011;13129;48.012;10.352;2023-05-18T12:59:16;7.60;;;4.97;;
25169;SDS011;13129;48.012;10.352;2023-05-18T13:01:43;4.93;;;4.40;;
25169;SDS011;13129;48.012;10.352;2023-05-18T13:04:09;7.18;;;4.60;;
25169;SDS011;13129;48.012;10.352;2023-05-18T13:06:38;6.65;;;4.50;;
25169;SDS011;13129;48.012;10.352;2023-05-18T13:09:10;5.15;;;4.53;;
25169;SDS011;13129;48.012;10.352;2023-05-18T13:11:37;6.68;;;4.57;;
25169;SDS011;13129;48.012;10.352;2023-05-18T13:14:03;6.03;;;4.70;;
25169;SDS011;13129;48.012;10.352;2023-05-18T13:16:31;7.72;;;4.28;;
25169;SDS011;13129;48.012;10.352;2023-05-18T13:18:58;6.10;;;4.60;;
25169;SDS011;13129;48.012;10.352;2023-05-18T13:21:29;8.15;;;4.32;;
25169;SDS011;13129;48.012;10.352;2023-05-18T13:23:55;6.95;;;4.85;;
25169;SDS011;13129;48.012;10.352;2023-05-18T13:26:21;6.15;;;4.70;;
25169;SDS011;13129;48.012;10.352;2023-05-18T13:28:49;5.85;;;3.92;;
25169;SDS011;13129;48.012;10.352;2023-05-18T13:31:16;5.95;;;4.25;;
25169;SDS011;13129;48.012;10.352;2023-05-18T13:33:42;6.47;;;4.07;;
25169;SDS011;13129;48.012;10.352;2023-05-18T13:36:08;6.05;;;4.20;;
25169;SDS011;13129;48.012;10.352;2023-05-18T13:38:34;6.07;;;3.83;;
25169;SDS011;13129;48.012;10.352;2023-05-18T13:41:02;4.88;;;3.88;;
25169;SDS011;13129;48.012;10.352;2023-05-18T13:43:28;5.70;;;3.50;;
25169;SDS011;13129;48.012;10.352;2023-05-18T13:45:54;5.65;;;3.75;;
25169;SDS011;13129;48.012;10.352;2023-05-18T13:48:21;7.82;;;3.03;;
25169;SDS011;13129;48.012;10.352;2023-05-18T13:50:46;5.93;;;3.72;;
25169;SDS011;13129;48.012;10.352;2023-05-18T13:53:12;5.35;;;3.75;;
25169;SDS011;13129;48.012;10.352;2023-05-18T13:55:38;4.75;;;3.53;;
25169;SDS011;13129;48.012;10.352;2023-05-18T13:58:04;6.38;;;3.50;;
25169;SDS011;13129;48.012;10.352;2023-05-18T14:00:30;4.63;;;3.90;;
25169;SDS011;13129;48.012;10.352;2023-05-18T14:02:57;5.57;;;4.00;;
25169;SDS011;13129;48.012;10.352;2023-05-18T14:05:22;9.38;;;3.78;;
25169;SDS011;13129;48.012;10.352;2023-05-18T14:07:48;3.72;;;2.75;;
25169;SDS011;13129;48.012;10.352;2023-05-18T14:10:16;6.45;;;3.72;;
25169;SDS011;13129;48.012;10.352;2023-05-18T14:12:42;3.65;;;3.22;;
25169;SDS011;13129;48.012;10.352;2023-05-18T14:15:08;5.40;;;2.90;;
25169;SDS011;13129;48.012;10.352;2023-05-18T14:17:34;6.38;;;2.88;;
25169;SDS011;13129;48.012;10.352;2023-05-18T14:20:00;4.28;;;2.83;;
25169;SDS011;13129;48.012;10.352;2023-05-18T14:22:26;5.15;;;3.50;;
25169;SDS011;13129;48.012;10.352;2023-05-18T14:24:54;4.85;;;3.05;;
25169;SDS011;13129;48.012;10.352;2023-05-18T14:27:20;3.42;;;3.13;;
25169;SDS011;13129;48.012;10.352;2023-05-18T14:29:46;6.03;;;3.10;;
25169;SDS011;13129;48.012;10.352;2023-05-18T14:32:12;5.53;;;3.42;;
25169;SDS011;13129;48.012;10.352;2023-05-18T14:34:37;5.55;;;3.22;;
25169;SDS011;13129;48.012;10.352;2023-05-18T14:37:03;5.72;;;3.08;;
25169;SDS011;13129;48.012;10.352;2023-05-18T14:39:29;5.78;;;3.30;;
25169;SDS011;13129;48.012;10.352;2023-05-18T14:41:55;3.92;;;3.03;;
25169;SDS011;13129;48.012;10.352;2023-05-18T14:44:20;3.80;;;2.75;;
25169;SDS011;13129;48.012;10.352;2023-05-18T14:46:46;4.15;;;3.00;;
25169;SDS011;13129;48.012;10.352;2023-05-18T14:49:12;3.20;;;2.50;;
25169;SDS011;13129;48.012;10.352;2023-05-18T14:51:38;8.07;;;3.40;;
25169;SDS011;13129;48.012;10.352;2023-05-18T14:54:03;6.00;;;2.97;;
25169;SDS011;13129;48.012;10.352;2023-05-18T14:56:29;5.93;;;2.88;;
25169;SDS011;13129;48.012;10.352;2023-05-18T14:58:55;4.35;;;3.33;;
25169;SDS011;13129;48.012;10.352;2023-05-18T15:01:20;4.75;;;3.20;;
25169;SDS011;13129;48.012;10.352;2023-05-18T15:03:46;3.63;;;3.33;;
25169;SDS011;13129;48.012;10.352;2023-05-18T15:06:12;4.45;;;2.95;;
25169;SDS011;13129;48.012;10.352;2023-05-18T15:08:38;4.60;;;3.22;;
25169;SDS011;13129;48.012;10.352;2023-05-18T15:11:04;4.80;;;3.38;;
25169;SDS011;13129;48.012;10.352;2023-05-18T15:13:29;4.05;;;3.03;;
25169;SDS011;13129;48.012;10.352;2023-05-18T15:15:55;3.45;;;3.03;;
25169;SDS011;13129;48.012;10.352;2023-05-18T15:18:21;3.90;;;2.97;;
25169;SDS011;13129;48.012;10.352;2023-05-18T15:20:47;6.78;;;3.75;;
25169;SDS011;13129;48.012;10.352;2023-05-18T15:23:13;5.65;;;3.63;;
25169;SDS011;13129;48.012;10.352;2023-05-18T15:25:38;7.05;;;3.50;;
25169;SDS011;13129;48.012;10.352;2023-05-18T15:28:05;4.05;;;3.13;;
25169;SDS011;13129;48.012;10.352;2023-05-18T15:30:31;3.63;;;3.15;;
25169;SDS011;13129;48.012;10.352;2023-05-18T15:32:58;5.22;;;3.67;;
25169;SDS011;13129;48.012;10.352;2023-05-18T15:35:26;3.10;;;2.80;;
25169;SDS011;13129;48.012;10.352;2023-05-18T15:37:53;6.20;;;3.25;;
25169;SDS011;13129;48.012;10.352;2023-05-18T15:40:19;3.92;;;3.60;;
25169;SDS011;13129;48.012;10.352;2023-05-18T15:42:45;3.28;;;2.92;;
25169;SDS011;13129;48.012;10.352;2023-05-18T15:45:11;4.50;;;3.28;;
25169;SDS011;13129;48.012;10.352;2023-05-18T15:47:37;7.20;;;3.63;;
25169;SDS011;13129;48.012;10.352;2023-05-18T15:50:03;3.45;;;3.15;;
25169;SDS011;13129;48.012;10.352;2023-05-18T15:52:29;3.78;;;3.15;;
25169;SDS011;13129;48.012;10.352;2023-05-18T15:54:55;3.95;;;3.45;;
25169;SDS011;13129;48.012;10.352;2023-05-18T15:57:21;5.53;;;4.28;;
25169;SDS011;13129;48.012;10.352;2023-05-18T15:59:47;4.15;;;3.20;;
25169;SDS011;13129;48.012;10.352;2023-05-18T16:02:13;6.35;;;3.47;;
25169;SDS011;13129;48.012;10.352;2023-05-18T16:04:39;5.57;;;3.47;;
25169;SDS011;13129;48.012;10.352;2023-05-18T16:07:04;6.20;;;3.38;;
25169;SDS011;13129;48.012;10.352;2023-05-18T16:09:30;3.15;;;2.55;;
25169;SDS011;13129;48.012;10.352;2023-05-18T16:11:56;4.55;;;3.50;;
25169;SDS011;13129;48.012;10.352;2023-05-18T16:14:22;5.60;;;3.50;;
25169;SDS011;13129;48.012;10.352;2023-05-18T16:16:47;4.78;;;3.47;;
25169;SDS011;13129;48.012;10.352;2023-05-18T16:19:13;3.55;;;3.25;;
25169;SDS011;13129;48.012;10.352;2023-05-18T16:21:39;6.68;;;3.40;;
25169;SDS011;13129;48.012;10.352;2023-05-18T16:24:05;4.68;;;3.20;;
25169;SDS011;13129;48.012;10.352;2023-05-18T16:26:31;7.05;;;3.38;;
25169;SDS011;13129;48.012;10.352;2023-05-18T16:28:59;4.55;;;3.20;;
25169;SDS011;13129;48.012;10.352;2023-05-18T16:31:27;5.75;;;3.78;;
25169;SDS011;13129;48.012;10.352;2023-05-18T16:33:54;5.13;;;3.50;;
25169;SDS011;13129;48.012;10.352;2023-05-18T16:36:21;5.38;;;3.03;;
25169;SDS011;13129;48.012;10.352;2023-05-18T16:38:50;4.38;;;3.30;;
25169;SDS011;13129;48.012;10.352;2023-05-18T16:41:16;4.85;;;3.08;;
25169;SDS011;13129;48.012;10.352;2023-05-18T16:43:42;3.30;;;2.92;;
25169;SDS011;13129;48.012;10.352;2023-05-18T16:46:08;5.57;;;3.30;;
25169;SDS011;13129;48.012;10.352;2023-05-18T16:48:35;4.75;;;3.80;;
25169;SDS011;13129;48.012;10.352;2023-05-18T16:51:00;8.38;;;3.25;;
25169;SDS011;13129;48.012;10.352;2023-05-18T16:53:30;6.03;;;3.03;;
25169;SDS011;13129;48.012;10.352;2023-05-18T16:55:56;4.90;;;3.30;;
25169;SDS011;13129;48.012;10.352;2023-05-18T16:58:22;4.22;;;3.42;;
25169;SDS011;13129;48.012;10.352;2023-05-18T17:00:48;5.78;;;3.00;;
25169;SDS011;13129;48.012;10.352;2023-05-18T17:03:13;4.43;;;3.10;;
25169;SDS011;13129;48.012;10.352;2023-05-18T17:05:41;4.97;;;3.30;;
25169;SDS011;13129;48.012;10.352;2023-05-18T17:08:07;6.60;;;4.10;;
25169;SDS011;13129;48.012;10.352;2023-05-18T17:10:34;7.88;;;3.97;;
25169;SDS011;13129;48.012;10.352;2023-05-18T17:13:00;4.50;;;3.20;;
25169;SDS011;13129;48.012;10.352;2023-05-18T17:15:26;6.25;;;3.83;;
25169;SDS011;13129;48.012;10.352;2023-05-18T17:17:51;5.93;;;3.30;;
25169;SDS011;13129;48.012;10.352;2023-05-18T17:20:17;5.90;;;3.85;;
25169;SDS011;13129;48.012;10.352;2023-05-18T17:22:43;8.55;;;3.53;;
25169;SDS011;13129;48.012;10.352;2023-05-18T17:25:08;5.50;;;3.88;;
25169;SDS011;13129;48.012;10.352;2023-05-18T17:27:34;6.68;;;3.70;;
25169;SDS011;13129;48.012;10.352;2023-05-18T17:30:00;6.93;;;3.95;;
25169;SDS011;13129;48.012;10.352;2023-05-18T17:32:25;6.32;;;3.90;;
25169;SDS011;13129;48.012;10.352;2023-05-18T17:34:51;7.20;;;3.92;;
25169;SDS011;13129;48.012;10.352;2023-05-18T17:37:17;6.53;;;3.60;;
25169;SDS011;13129;48.012;10.352;2023-05-18T17:39:43;5.28;;;3.72;;
25169;SDS011;13129;48.012;10.352;2023-05-18T17:42:09;8.52;;;4.25;;
25169;SDS011;13129;48.012;10.352;2023-05-18T17:44:34;4.82;;;3.22;;
25169;SDS011;13129;48.012;10.352;2023-05-18T17:47:00;6.38;;;3.92;;
25169;SDS011;13129;48.012;10.352;2023-05-18T17:49:28;7.97;;;4.25;;
25169;SDS011;13129;48.012;10.352;2023-05-18T17:51:53;8.13;;;3.90;;
25169;SDS011;13129;48.012;10.352;2023-05-18T17:54:21;7.22;;;4.07;;
25169;SDS011;13129;48.012;10.352;2023-05-18T17:56:46;5.78;;;3.65;;
25169;SDS011;13129;48.012;10.352;2023-05-18T17:59:12;7.53;;;4.00;;
25169;SDS011;13129;48.012;10.352;2023-05-18T18:01:39;6.47;;;4.07;;
25169;SDS011;13129;48.012;10.352;2023-05-18T18:04:05;5.68;;;3.88;;
25169;SDS011;13129;48.012;10.352;2023-05-18T18:06:31;4.95;;;3.97;;
25169;SDS011;13129;48.012;10.352;2023-05-18T18:08:59;4.88;;;4.00;;
25169;SDS011;13129;48.012;10.352;2023-05-18T18:11:26;6.85;;;4.30;;
25169;SDS011;13129;48.012;10.352;2023-05-18T18:13:52;9.02;;;3.80;;
25169;SDS011;13129;48.012;10.352;2023-05-18T18:16:18;5.00;;;3.80;;
25169;SDS011;13129;48.012;10.352;2023-05-18T18:18:44;6.88;;;3.90;;
25169;SDS011;13129;48.012;10.352;2023-05-18T18:21:10;7.50;;;3.95;;
25169;SDS011;13129;48.012;10.352;2023-05-18T18:23:36;7.00;;;4.05;;
25169;SDS011;13129;48.012;10.352;2023-05-18T18:26:04;6.40;;;4.03;;
25169;SDS011;13129;48.012;10.352;2023-05-18T18:28:30;6.85;;;3.80;;